createdAt,value
2022-12-25T00:01:48.405Z,16.80
2022-12-25T00:04:24.684Z,17.80
2022-12-25T00:07:00.965Z,17.10
2022-12-25T00:09:39.223Z,17.20
2022-12-25T00:12:15.597Z,17.30
2022-12-25T00:14:51.886Z,16.30
2022-12-25T00:17:28.434Z,18.80
2022-12-25T00:20:05.307Z,20.10
2022-12-25T00:22:41.708Z,15.90
2022-12-25T00:25:18.001Z,13.30
2022-12-25T00:27:54.412Z,14.10
2022-12-25T00:30:30.775Z,11.80
2022-12-25T00:33:07.237Z,14.00
2022-12-25T00:35:43.721Z,12.90
2022-12-25T00:38:20.072Z,15.50
2022-12-25T00:40:56.379Z,15.20
2022-12-25T00:43:33.037Z,15.70
2022-12-25T00:46:13.371Z,14.90
2022-12-25T00:48:49.941Z,15.40
2022-12-25T00:51:26.177Z,15.50
2022-12-25T00:54:02.789Z,16.40
2022-12-25T00:56:40.216Z,16.70
2022-12-25T00:59:17.565Z,17.70
2022-12-25T01:01:53.936Z,17.20
2022-12-25T01:04:30.494Z,17.00
2022-12-25T01:07:06.750Z,17.20
2022-12-25T01:10:01.554Z,17.20
2022-12-25T01:12:40.787Z,17.30
2022-12-25T01:15:18.576Z,17.30
2022-12-25T01:17:54.838Z,15.10
2022-12-25T01:20:31.133Z,16.80
2022-12-25T01:23:07.720Z,16.60
2022-12-25T01:25:44.444Z,16.00
2022-12-25T01:28:21.354Z,16.90
2022-12-25T01:30:57.607Z,16.20
2022-12-25T01:33:34.360Z,17.70
2022-12-25T01:36:22.292Z,16.40
2022-12-25T01:39:00.221Z,16.50
2022-12-25T01:41:36.668Z,16.40
2022-12-25T01:45:17.254Z,16.20
2022-12-25T01:47:53.653Z,15.80
2022-12-25T01:50:30.617Z,15.60
2022-12-25T01:53:08.188Z,15.60
2022-12-25T01:55:48.824Z,16.10
2022-12-25T01:58:26.379Z,15.20
2022-12-25T02:01:05.796Z,16.90
2022-12-25T02:03:42.988Z,15.90
2022-12-25T02:06:19.382Z,15.20
2022-12-25T02:08:56.284Z,15.70
2022-12-25T02:11:50.118Z,14.90
2022-12-25T02:14:27.093Z,14.90
2022-12-25T02:17:17.353Z,15.40
2022-12-25T02:20:37.032Z,14.90
2022-12-25T02:24:12.203Z,14.40
2022-12-25T02:27:08.509Z,13.80
2022-12-25T02:29:59.632Z,13.60
2022-12-25T02:32:46.281Z,14.50
2022-12-25T02:35:32.551Z,13.40
2022-12-25T02:38:18.716Z,13.00
2022-12-25T02:41:03.096Z,12.50
2022-12-25T02:44:03.083Z,13.30
2022-12-25T02:46:57.679Z,13.40
2022-12-25T02:49:53.707Z,13.80
2022-12-25T02:52:50.258Z,12.10
2022-12-25T02:55:52.549Z,13.20
2022-12-25T02:58:48.743Z,12.20
2022-12-25T03:01:51.873Z,12.80
2022-12-25T03:04:48.550Z,12.10
2022-12-25T03:07:27.743Z,12.50
2022-12-25T03:10:28.964Z,12.30
2022-12-25T03:13:16.210Z,12.40
2022-12-25T03:16:12.167Z,13.40
2022-12-25T03:18:49.541Z,13.20
2022-12-25T03:21:55.013Z,14.10
2022-12-25T03:24:49.093Z,12.20
2022-12-25T03:27:26.357Z,14.90
2022-12-25T03:30:20.562Z,15.00
2022-12-25T03:33:43.214Z,14.50
2022-12-25T03:36:22.459Z,14.70
2022-12-25T03:39:29.575Z,13.80
2022-12-25T03:42:25.683Z,13.90
2022-12-25T03:45:32.847Z,15.20
2022-12-25T03:48:29.788Z,14.60
2022-12-25T03:51:32.566Z,14.40
2022-12-25T03:54:30.200Z,15.10
2022-12-25T03:57:24.580Z,15.60
2022-12-25T04:00:18.645Z,15.30
2022-12-25T04:03:12.756Z,14.30
2022-12-25T04:06:07.257Z,15.30
2022-12-25T04:09:01.175Z,15.50
2022-12-25T04:12:02.022Z,16.40
2022-12-25T04:14:56.494Z,14.90
2022-12-25T04:17:50.638Z,15.10
2022-12-25T04:20:45.700Z,15.30
2022-12-25T04:23:40.013Z,15.70
2022-12-25T04:26:33.811Z,14.80
2022-12-25T04:29:28.260Z,15.40
2022-12-25T04:32:22.694Z,15.60
2022-12-25T04:35:16.608Z,14.40
2022-12-25T04:37:52.863Z,14.80
2022-12-25T04:40:29.183Z,15.10
2022-12-25T04:43:05.496Z,14.80
2022-12-25T04:45:41.759Z,15.50
2022-12-25T04:48:18.047Z,15.90
2022-12-25T04:50:54.489Z,15.70
2022-12-25T04:53:31.261Z,14.60
2022-12-25T04:56:09.060Z,14.50
2022-12-25T04:58:45.920Z,15.10
2022-12-25T05:01:22.359Z,15.30
2022-12-25T05:03:58.720Z,15.90
2022-12-25T05:06:35.283Z,14.70
2022-12-25T05:09:12.545Z,15.50
2022-12-25T05:11:49.098Z,15.50
2022-12-25T05:14:25.468Z,14.30
2022-12-25T05:17:01.825Z,14.80
2022-12-25T05:19:38.114Z,14.90
2022-12-25T05:22:14.634Z,13.60
2022-12-25T05:24:51.027Z,14.90
2022-12-25T05:27:27.602Z,15.90
2022-12-25T05:30:03.793Z,14.30
2022-12-25T05:32:40.075Z,14.90
2022-12-25T05:35:16.808Z,13.80
2022-12-25T05:37:53.054Z,13.60
2022-12-25T05:40:29.286Z,15.00
2022-12-25T05:43:05.822Z,15.10
2022-12-25T05:45:42.090Z,14.60
2022-12-25T05:48:18.898Z,14.30
2022-12-25T05:50:55.087Z,14.90
2022-12-25T05:53:31.480Z,15.00
2022-12-25T05:56:10.652Z,15.10
2022-12-25T05:58:47.028Z,15.10
2022-12-25T06:01:29.557Z,16.20
2022-12-25T06:04:12.241Z,15.70
2022-12-25T06:06:49.263Z,14.70
2022-12-25T06:09:25.472Z,15.00
2022-12-25T06:12:01.791Z,14.90
2022-12-25T06:14:38.669Z,14.80
2022-12-25T06:17:14.901Z,15.50
2022-12-25T06:19:51.410Z,15.70
2022-12-25T06:22:31.434Z,15.80
2022-12-25T06:25:09.684Z,15.10
2022-12-25T06:27:45.999Z,14.50
2022-12-25T06:30:23.131Z,15.00
2022-12-25T06:33:00.137Z,15.20
2022-12-25T06:35:39.710Z,13.90
2022-12-25T06:38:15.981Z,13.50
2022-12-25T06:40:52.380Z,14.30
2022-12-25T06:43:28.622Z,13.80
2022-12-25T06:46:10.314Z,13.30
2022-12-25T06:48:49.819Z,14.50
2022-12-25T06:51:30.347Z,14.10
2022-12-25T06:54:07.276Z,13.90
2022-12-25T06:56:43.521Z,13.80
2022-12-25T06:59:20.122Z,14.00
2022-12-25T07:01:58.729Z,14.90
2022-12-25T07:04:40.668Z,14.50
2022-12-25T07:09:52.154Z,14.80
2022-12-25T07:12:28.936Z,16.30
2022-12-25T07:15:05.729Z,16.20
2022-12-25T07:17:42.116Z,17.10
2022-12-25T07:20:18.727Z,16.10
2022-12-25T07:22:55.189Z,14.60
2022-12-25T07:25:37.092Z,17.10
2022-12-25T07:28:13.855Z,17.10
2022-12-25T07:30:50.461Z,18.60
2022-12-25T07:33:27.148Z,18.30
2022-12-25T07:36:05.431Z,17.50
2022-12-25T07:38:42.462Z,18.90
2022-12-25T07:41:18.881Z,17.00
2022-12-25T07:43:57.479Z,16.90
2022-12-25T07:46:34.156Z,17.00
2022-12-25T07:49:11.078Z,17.40
2022-12-25T07:51:47.848Z,16.70
2022-12-25T07:54:24.500Z,16.50
2022-12-25T07:57:00.852Z,15.00
2022-12-25T07:59:37.272Z,14.50
2022-12-25T08:02:14.256Z,14.70
2022-12-25T08:04:51.047Z,14.90
2022-12-25T08:07:28.127Z,14.50
2022-12-25T08:10:05.290Z,14.00
2022-12-25T08:12:41.612Z,14.10
2022-12-25T08:15:18.571Z,12.20
2022-12-25T08:17:54.843Z,12.60
2022-12-25T08:20:31.260Z,12.80
2022-12-25T08:23:08.217Z,12.30
2022-12-25T08:25:44.597Z,11.60
2022-12-25T08:28:20.925Z,11.00
2022-12-25T08:30:57.467Z,11.90
2022-12-25T08:33:34.066Z,11.80
2022-12-25T08:36:13.946Z,11.70
2022-12-25T08:38:51.569Z,10.80
2022-12-25T08:41:29.518Z,12.10
2022-12-25T08:44:06.359Z,9.90
2022-12-25T08:46:42.875Z,10.50
2022-12-25T08:49:19.527Z,10.10
2022-12-25T08:51:56.236Z,10.30
2022-12-25T08:54:33.826Z,10.00
2022-12-25T08:57:10.201Z,9.20
2022-12-25T08:59:46.519Z,9.60
2022-12-25T09:02:23.031Z,9.00
2022-12-25T09:04:59.657Z,9.10
2022-12-25T09:07:35.900Z,8.30
2022-12-25T09:10:14.624Z,7.70
2022-12-25T09:12:50.884Z,9.00
2022-12-25T09:15:27.387Z,7.90
2022-12-25T09:18:04.048Z,12.50
2022-12-25T09:20:40.525Z,8.00
2022-12-25T09:23:16.824Z,7.50
2022-12-25T09:25:53.047Z,7.10
2022-12-25T09:28:29.620Z,7.10
2022-12-25T09:31:06.743Z,7.70
2022-12-25T09:33:43.184Z,6.80
2022-12-25T09:36:21.479Z,7.30
2022-12-25T09:38:57.946Z,7.20
2022-12-25T09:41:40.792Z,7.60
2022-12-25T09:44:25.373Z,6.80
2022-12-25T09:47:08.261Z,7.30
2022-12-25T09:49:54.526Z,6.60
2022-12-25T09:52:43.672Z,6.80
2022-12-25T09:55:24.404Z,6.80
2022-12-25T09:58:09.993Z,7.10
2022-12-25T10:00:54.223Z,6.70
2022-12-25T10:04:09.637Z,7.40
2022-12-25T10:07:03.192Z,7.70
2022-12-25T10:10:07.786Z,7.40
2022-12-25T10:13:03.005Z,7.40
2022-12-25T10:15:53.248Z,7.90
2022-12-25T10:19:11.765Z,9.40
2022-12-25T10:21:49.860Z,7.00
2022-12-25T10:24:37.833Z,6.80
2022-12-25T10:27:28.937Z,6.60
2022-12-25T10:30:15.716Z,7.30
2022-12-25T10:32:54.062Z,6.60
2022-12-25T10:35:33.073Z,7.30
2022-12-25T10:38:18.378Z,7.70
2022-12-25T10:41:19.112Z,8.40
2022-12-25T10:43:58.947Z,6.60
2022-12-25T10:46:35.602Z,7.00
2022-12-25T10:49:22.291Z,7.60
2022-12-25T10:51:58.770Z,6.40
2022-12-25T10:54:37.764Z,9.90
2022-12-25T10:57:23.138Z,6.30
2022-12-25T11:00:01.892Z,5.80
2022-12-25T11:02:44.092Z,6.40
2022-12-25T11:05:31.374Z,10.50
2022-12-25T11:08:22.288Z,6.30
2022-12-25T11:11:06.818Z,6.10
2022-12-25T11:13:58.489Z,5.70
2022-12-25T11:16:40.191Z,5.60
2022-12-25T11:22:19.029Z,5.30
2022-12-25T11:24:56.566Z,5.30
2022-12-25T11:27:34.055Z,5.10
2022-12-25T11:30:18.254Z,4.80
2022-12-25T11:32:59.577Z,4.30
2022-12-25T11:35:47.820Z,5.20
2022-12-25T11:38:24.828Z,5.00
2022-12-25T11:41:05.943Z,4.50
2022-12-25T11:43:50.823Z,4.20
2022-12-25T11:46:38.681Z,4.00
2022-12-25T11:49:22.365Z,4.10
2022-12-25T11:52:01.551Z,4.70
2022-12-25T11:54:49.195Z,4.60
2022-12-25T11:57:29.186Z,5.10
2022-12-25T12:00:15.663Z,5.00
2022-12-25T12:03:00.430Z,4.60
2022-12-25T12:05:49.299Z,4.70
2022-12-25T12:08:25.868Z,5.00
2022-12-25T12:11:20.721Z,5.10
2022-12-25T12:14:25.315Z,4.90
2022-12-25T12:17:02.568Z,4.90
2022-12-25T12:19:39.276Z,4.80
2022-12-25T12:22:26.599Z,4.90
2022-12-25T12:25:09.488Z,5.00
2022-12-25T12:27:47.098Z,5.10
2022-12-25T12:30:34.792Z,4.90
2022-12-25T12:33:21.962Z,4.50
2022-12-25T12:35:58.830Z,3.90
2022-12-25T12:38:36.482Z,4.00
2022-12-25T12:41:15.443Z,4.50
2022-12-25T12:44:00.608Z,4.30
2022-12-25T12:46:51.475Z,4.10
2022-12-25T12:49:32.379Z,4.50
2022-12-25T12:52:33.020Z,4.30
2022-12-25T12:55:13.772Z,4.30
2022-12-25T12:58:01.934Z,4.20
2022-12-25T13:00:54.508Z,4.50
2022-12-25T13:03:50.452Z,3.70
2022-12-25T13:06:40.905Z,3.90
2022-12-25T13:09:40.521Z,3.90
2022-12-25T13:12:21.023Z,4.10
2022-12-25T13:14:57.499Z,4.50
2022-12-25T13:17:34.074Z,4.70
2022-12-25T13:20:32.414Z,4.30
2022-12-25T13:23:28.363Z,4.60
2022-12-25T13:26:12.848Z,4.10
2022-12-25T13:28:50.663Z,4.30
2022-12-25T13:31:29.636Z,3.80
2022-12-25T13:34:21.165Z,4.20
2022-12-25T13:36:59.479Z,4.10
2022-12-25T13:39:40.590Z,4.30
2022-12-25T13:42:23.713Z,4.90
2022-12-25T13:45:06.169Z,4.80
2022-12-25T13:47:51.424Z,4.70
2022-12-25T13:50:35.296Z,4.90
2022-12-25T13:53:20.332Z,5.10
2022-12-25T13:55:59.598Z,5.40
2022-12-25T13:58:39.525Z,5.90
2022-12-25T14:01:21.910Z,6.50
2022-12-25T14:03:58.778Z,6.30
2022-12-25T14:06:35.966Z,5.80
2022-12-25T14:09:15.704Z,6.50
2022-12-25T14:11:56.056Z,6.30
2022-12-25T14:14:33.176Z,5.80
2022-12-25T14:17:11.319Z,5.80
2022-12-25T14:19:47.873Z,6.40
2022-12-25T14:22:27.138Z,6.70
2022-12-25T14:25:03.580Z,6.20
2022-12-25T14:27:39.873Z,6.50
2022-12-25T14:30:19.950Z,7.00
2022-12-25T14:32:59.636Z,6.50
2022-12-25T14:35:36.251Z,6.70
2022-12-25T14:38:24.587Z,6.60
2022-12-25T14:41:33.718Z,6.50
2022-12-25T14:44:38.874Z,6.10
2022-12-25T14:47:23.878Z,6.90
2022-12-25T14:50:00.626Z,7.40
2022-12-25T14:52:46.644Z,7.40
2022-12-25T14:55:28.875Z,7.70
2022-12-25T14:58:22.021Z,7.40
2022-12-25T15:01:04.332Z,7.40
2022-12-25T15:03:41.885Z,8.00
2022-12-25T15:06:25.980Z,7.60
2022-12-25T15:09:06.578Z,8.30
2022-12-25T15:11:43.421Z,8.30
2022-12-25T15:14:20.325Z,7.80
2022-12-25T15:17:01.462Z,8.30
2022-12-25T15:19:42.511Z,8.90
2022-12-25T15:22:22.961Z,9.00
2022-12-25T15:25:02.485Z,8.20
2022-12-25T15:27:39.272Z,8.50
2022-12-25T15:30:17.950Z,9.70
2022-12-25T15:32:54.467Z,9.20
2022-12-25T15:35:33.378Z,9.00
2022-12-25T15:38:09.649Z,9.40
2022-12-25T15:40:48.374Z,9.10
2022-12-25T15:43:41.407Z,9.70
2022-12-25T15:46:19.424Z,10.30
2022-12-25T15:48:56.105Z,9.70
2022-12-25T15:51:32.977Z,10.20
2022-12-25T15:54:11.275Z,10.00
2022-12-25T15:56:52.767Z,10.60
2022-12-25T15:59:29.441Z,8.60
2022-12-25T16:02:14.702Z,8.90
2022-12-25T16:04:55.169Z,10.20
2022-12-25T16:07:33.789Z,10.30
2022-12-25T16:10:17.747Z,10.70
2022-12-25T16:12:54.095Z,11.60
2022-12-25T16:15:30.559Z,11.50
2022-12-25T16:18:07.723Z,13.90
2022-12-25T16:20:44.208Z,11.90
2022-12-25T16:23:20.528Z,13.20
2022-12-25T16:25:56.949Z,15.20
2022-12-25T16:28:33.403Z,16.90
2022-12-25T16:31:10.290Z,16.20
2022-12-25T16:33:46.652Z,14.60
2022-12-25T16:36:26.906Z,22.50
2022-12-25T16:39:04.764Z,25.20
2022-12-25T16:41:41.181Z,25.60
2022-12-25T16:44:17.796Z,24.50
2022-12-25T16:46:54.460Z,26.30
2022-12-25T16:49:31.121Z,27.10
2022-12-25T16:52:07.934Z,28.00
2022-12-25T16:54:46.510Z,25.40
2022-12-25T16:57:23.058Z,23.80
2022-12-25T17:00:00.182Z,23.80
2022-12-25T17:02:36.924Z,25.00
2022-12-25T17:05:15.232Z,25.70
2022-12-25T17:07:51.898Z,24.20
2022-12-25T17:10:28.368Z,25.40
2022-12-25T17:13:04.603Z,24.90
2022-12-25T17:15:45.260Z,23.60
2022-12-25T17:18:26.765Z,21.60
2022-12-25T17:21:03.139Z,22.00
2022-12-25T17:23:41.249Z,23.10
2022-12-25T17:26:17.692Z,22.60
2022-12-25T17:28:53.930Z,23.30
2022-12-25T17:31:31.066Z,23.20
2022-12-25T17:34:09.752Z,23.00
2022-12-25T17:36:46.247Z,23.70
2022-12-25T17:39:22.722Z,22.30
2022-12-25T17:41:59.629Z,21.90
2022-12-25T17:44:36.351Z,20.80
2022-12-25T17:47:12.853Z,22.50
2022-12-25T17:49:49.324Z,23.00
2022-12-25T17:52:25.829Z,22.20
2022-12-25T17:55:02.656Z,21.50
2022-12-25T17:57:41.201Z,22.40
2022-12-25T18:00:20.830Z,23.20
2022-12-25T18:02:57.990Z,25.50
2022-12-25T18:05:38.149Z,21.90
2022-12-25T18:08:14.613Z,23.70
2022-12-25T18:10:52.409Z,25.40
2022-12-25T18:13:28.787Z,26.20
2022-12-25T18:16:09.763Z,25.70
2022-12-25T18:18:52.170Z,25.50
2022-12-25T18:21:31.214Z,27.50
2022-12-25T18:24:12.346Z,27.00
2022-12-25T18:26:52.223Z,28.00
2022-12-25T18:29:29.358Z,28.30
2022-12-25T18:32:06.286Z,28.20
2022-12-25T18:34:42.734Z,30.40
2022-12-25T18:37:19.201Z,28.70
2022-12-25T18:39:55.721Z,28.90
2022-12-25T18:42:41.070Z,28.80
2022-12-25T18:45:21.053Z,27.60
2022-12-25T18:47:57.473Z,26.60
2022-12-25T18:50:36.183Z,26.50
2022-12-25T18:53:12.643Z,25.00
2022-12-25T18:55:49.118Z,26.20
2022-12-25T18:58:26.337Z,29.00
2022-12-25T19:01:02.800Z,28.30
2022-12-25T19:03:39.499Z,27.90
2022-12-25T19:06:22.744Z,29.10
2022-12-25T19:08:59.787Z,26.60
2022-12-25T19:11:42.087Z,28.60
2022-12-25T19:14:22.431Z,26.20
2022-12-25T19:16:59.185Z,27.50
2022-12-25T19:19:35.589Z,25.00
2022-12-25T19:22:13.189Z,26.70
2022-12-25T19:24:49.704Z,29.60
2022-12-25T19:27:26.077Z,28.70
2022-12-25T19:30:02.550Z,30.30
2022-12-25T19:32:39.073Z,25.90
2022-12-25T19:35:15.835Z,27.30
2022-12-25T19:37:52.361Z,31.50
2022-12-25T19:40:28.930Z,30.10
2022-12-25T19:43:05.610Z,29.50
2022-12-25T19:45:42.101Z,28.10
2022-12-25T19:48:19.157Z,30.60
2022-12-25T19:50:55.766Z,29.10
2022-12-25T19:53:34.007Z,31.10
2022-12-25T19:56:10.964Z,31.10
2022-12-25T19:58:48.184Z,30.00
2022-12-25T20:01:29.695Z,28.60
2022-12-25T20:04:08.116Z,31.20
2022-12-25T20:06:46.086Z,32.50
2022-12-25T20:09:24.473Z,29.10
2022-12-25T20:12:00.874Z,29.10
2022-12-25T20:14:37.345Z,31.90
2022-12-25T20:17:16.045Z,25.60
2022-12-25T20:19:52.860Z,28.40
2022-12-25T20:22:29.617Z,28.80
2022-12-25T20:25:09.270Z,30.60
2022-12-25T20:27:45.916Z,29.80
2022-12-25T20:30:22.696Z,28.90
2022-12-25T20:32:59.071Z,29.90
2022-12-25T20:35:35.535Z,30.60
2022-12-25T20:38:12.113Z,31.10
2022-12-25T20:41:25.078Z,29.00
2022-12-25T20:43:48.080Z,29.40
2022-12-25T20:46:24.662Z,30.10
2022-12-25T20:49:02.268Z,30.10
2022-12-25T20:51:39.238Z,28.20
2022-12-25T20:54:15.480Z,29.90
2022-12-25T20:56:53.157Z,29.20
2022-12-25T20:59:35.223Z,32.40
2022-12-25T21:02:34.569Z,30.00
2022-12-25T21:05:14.200Z,30.80
2022-12-25T21:07:50.570Z,28.80
2022-12-25T21:10:26.971Z,29.30
2022-12-25T21:13:03.444Z,31.50
2022-12-25T21:15:43.898Z,31.40
2022-12-25T21:18:23.304Z,30.10
2022-12-25T21:21:05.821Z,30.00
2022-12-25T21:23:44.132Z,29.70
2022-12-25T21:26:26.087Z,32.40
2022-12-25T21:31:53.887Z,28.10
2022-12-25T21:34:32.308Z,31.50
2022-12-25T21:37:11.016Z,29.20
2022-12-25T21:39:49.937Z,29.90
2022-12-25T21:42:26.460Z,30.10
2022-12-25T21:45:02.880Z,28.70
2022-12-25T21:48:02.294Z,28.60
2022-12-25T21:50:53.591Z,30.30
2022-12-25T21:53:29.942Z,31.20
2022-12-25T21:56:06.872Z,29.90
2022-12-25T21:58:43.290Z,32.00
2022-12-25T22:01:20.044Z,30.80
2022-12-25T22:03:56.791Z,32.50
2022-12-25T22:06:51.027Z,31.20
2022-12-25T22:09:27.905Z,30.00
2022-12-25T22:12:22.599Z,30.40
2022-12-25T22:15:03.012Z,28.30
2022-12-25T22:18:00.791Z,30.40
2022-12-25T22:20:41.863Z,29.90
2022-12-25T22:23:19.593Z,29.90
2022-12-25T22:25:55.997Z,29.40
2022-12-25T22:28:32.495Z,29.20
2022-12-25T22:31:11.456Z,27.90
2022-12-25T22:33:47.711Z,29.20
2022-12-25T22:36:24.356Z,27.50
2022-12-25T22:39:00.833Z,29.00
2022-12-25T22:41:37.502Z,30.20
2022-12-25T22:44:17.536Z,28.30
2022-12-25T22:46:55.043Z,30.00
2022-12-25T22:49:32.442Z,29.00
2022-12-25T22:52:09.943Z,30.10
2022-12-25T22:54:46.593Z,29.60
2022-12-25T22:57:22.817Z,27.80
2022-12-25T22:59:59.438Z,29.80
2022-12-25T23:02:36.371Z,27.20
2022-12-25T23:05:14.032Z,27.60
2022-12-25T23:07:50.574Z,28.50
2022-12-25T23:10:27.965Z,27.60
2022-12-25T23:13:21.734Z,26.10
2022-12-25T23:15:58.146Z,28.00
2022-12-25T23:18:52.374Z,27.10
2022-12-25T23:21:48.287Z,24.80
2022-12-25T23:24:42.575Z,23.20
2022-12-25T23:27:18.924Z,25.60
2022-12-25T23:29:55.281Z,26.00
2022-12-25T23:32:31.750Z,24.30
2022-12-25T23:35:10.170Z,24.00
2022-12-25T23:37:46.773Z,24.50
2022-12-25T23:40:23.636Z,23.90
2022-12-25T23:42:59.906Z,24.00
2022-12-25T23:45:36.228Z,23.60
2022-12-25T23:48:12.926Z,24.50
2022-12-25T23:50:49.282Z,22.10
2022-12-25T23:53:25.636Z,22.80
2022-12-25T23:56:02.665Z,22.80
2022-12-25T23:58:39.065Z,57.30
